NZAA Airport Information

Runway Information
Runway 05L Length 10197 ft width 148 ft
Elevation 15 ft Threshold 1148 ft Heading 71
Runway 23R Length 10197 ft Width 148 ft
Elevation 22 ft Threshold 1542 ft Heading 251
Runway 05R Length 11926 ft width 148 ft
Elevation 15 ft Threshold 1125 ft Heading 72
Runway 23L Length 11926 ft Width 148 ft
Elevation 23 ft Threshold 0 ft Heading 252
Airport Frequencies
Type APP Name APP Frequency 124.3 MHZ
Type ATIS Name ATIS Frequency 127.8 MHZ
Type CLD Name CLNC DEL Frequency 128.2 MHZ
Type GND Name GND Frequency 121.9 MHZ
Type TWR Name TWR Frequency 118.7 MHZ
Airport Navaids
Type VOR-DME Name Auckland Frequency 114800 KHZ
Type NDB Name Whitford Frequency 334 KHZ
Type NDB Name Westpoint Frequency 398 KHZ
Airport Weather Information & NOTAM
ADDS - METARS form results

(0808 UTC 22 May 2018)
 
METAR text: NZAA 220800Z AUTO 34010KT 290V020 9999 FEW023/// 15/13 Q1000 TEMPO 6000 SHRA FEW020TCU
Conditions at: NZAA (AUCKLAND INTL AR, NZ) observed 0800 UTC 22 May 2018
Temperature: 15.0°C (59°F)
Dewpoint: 13.0°C (55°F) [RH = 88%]
Pressure (altimeter): 29.53 inches Hg (1000.0 mb)
Winds: from the NNW (340 degrees) at 12 MPH (10 knots; 5.2 m/s)
Visibility: 6 or more miles (10+ km)
Ceiling: at least 12,000 feet AGL
Clouds: few clouds at 2300 feet AGL
Weather: no significant weather observed at this time

METAR text: NZAA 220730Z AUTO 33012KT 9999 -RA FEW029/// SCT050/// BKN080/// 16/14 Q1000 TEMPO 2000 TSRA SCT020CB
Conditions at: NZAA (AUCKLAND INTL AR, NZ) observed 0730 UTC 22 May 2018
Temperature: 16.0°C (61°F)
Dewpoint: 14.0°C (57°F) [RH = 88%]
Pressure (altimeter): 29.53 inches Hg (1000.0 mb)
Winds: from the NNW (330 degrees) at 14 MPH (12 knots; 6.2 m/s)
Visibility: 6 or more miles (10+ km)
Ceiling: 8000 feet AGL
Clouds: few clouds at 2900 feet AGL
scattered clouds at 5000 feet AGL
broken clouds at 8000 feet AGL
Weather: -RA  (light rain)